sensor_id;sensor_type;location;lat;lon;timestamp;P1;durP1;ratioP1;P2;durP2;ratioP2
33690;SDS011;20026;50.058;18.428;2022-10-31T00:00:24;42.13;;;23.13;;
33690;SDS011;20026;50.058;18.428;2022-10-31T00:02:54;41.22;;;24.33;;
33690;SDS011;20026;50.058;18.428;2022-10-31T00:05:20;41.67;;;24.65;;
33690;SDS011;20026;50.058;18.428;2022-10-31T00:07:46;39.92;;;24.00;;
33690;SDS011;20026;50.058;18.428;2022-10-31T00:10:12;41.58;;;23.73;;
33690;SDS011;20026;50.058;18.428;2022-10-31T00:12:38;40.95;;;23.33;;
33690;SDS011;20026;50.058;18.428;2022-10-31T00:15:04;36.95;;;21.88;;
33690;SDS011;20026;50.058;18.428;2022-10-31T00:17:30;38.50;;;22.58;;
33690;SDS011;20026;50.058;18.428;2022-10-31T00:19:56;41.97;;;23.08;;
33690;SDS011;20026;50.058;18.428;2022-10-31T00:22:22;38.50;;;23.13;;
33690;SDS011;20026;50.058;18.428;2022-10-31T00:24:48;39.55;;;22.52;;
33690;SDS011;20026;50.058;18.428;2022-10-31T00:27:14;40.28;;;22.38;;
33690;SDS011;20026;50.058;18.428;2022-10-31T00:29:43;39.85;;;23.27;;
33690;SDS011;20026;50.058;18.428;2022-10-31T00:32:09;41.25;;;24.17;;
33690;SDS011;20026;50.058;18.428;2022-10-31T00:34:34;39.20;;;22.98;;
33690;SDS011;20026;50.058;18.428;2022-10-31T00:37:00;41.85;;;22.67;;
33690;SDS011;20026;50.058;18.428;2022-10-31T00:39:26;39.97;;;23.90;;
33690;SDS011;20026;50.058;18.428;2022-10-31T00:41:52;39.20;;;23.70;;
33690;SDS011;20026;50.058;18.428;2022-10-31T00:44:18;37.17;;;22.25;;
33690;SDS011;20026;50.058;18.428;2022-10-31T00:46:47;40.40;;;24.05;;
33690;SDS011;20026;50.058;18.428;2022-10-31T00:49:13;40.20;;;23.75;;
33690;SDS011;20026;50.058;18.428;2022-10-31T00:51:39;36.97;;;22.92;;
33690;SDS011;20026;50.058;18.428;2022-10-31T00:54:04;41.97;;;24.48;;
33690;SDS011;20026;50.058;18.428;2022-10-31T00:56:30;39.55;;;22.88;;
33690;SDS011;20026;50.058;18.428;2022-10-31T00:58:56;42.60;;;23.05;;
33690;SDS011;20026;50.058;18.428;2022-10-31T01:01:22;41.00;;;23.70;;
33690;SDS011;20026;50.058;18.428;2022-10-31T01:03:48;46.03;;;25.50;;
33690;SDS011;20026;50.058;18.428;2022-10-31T01:06:14;43.92;;;25.33;;
33690;SDS011;20026;50.058;18.428;2022-10-31T01:08:41;41.75;;;24.48;;
33690;SDS011;20026;50.058;18.428;2022-10-31T01:11:14;49.95;;;26.98;;
33690;SDS011;20026;50.058;18.428;2022-10-31T01:13:41;44.40;;;25.25;;
33690;SDS011;20026;50.058;18.428;2022-10-31T01:16:08;46.90;;;27.13;;
33690;SDS011;20026;50.058;18.428;2022-10-31T01:18:34;52.88;;;29.13;;
33690;SDS011;20026;50.058;18.428;2022-10-31T01:21:02;45.35;;;25.63;;
33690;SDS011;20026;50.058;18.428;2022-10-31T01:23:28;46.88;;;26.02;;
33690;SDS011;20026;50.058;18.428;2022-10-31T01:26:05;50.72;;;27.55;;
33690;SDS011;20026;50.058;18.428;2022-10-31T01:28:32;50.00;;;28.20;;
33690;SDS011;20026;50.058;18.428;2022-10-31T01:31:05;50.50;;;29.13;;
33690;SDS011;20026;50.058;18.428;2022-10-31T01:33:31;68.30;;;37.38;;
33690;SDS011;20026;50.058;18.428;2022-10-31T01:35:57;49.40;;;27.92;;
33690;SDS011;20026;50.058;18.428;2022-10-31T01:38:24;63.55;;;34.03;;
33690;SDS011;20026;50.058;18.428;2022-10-31T01:40:50;62.72;;;32.55;;
33690;SDS011;20026;50.058;18.428;2022-10-31T01:43:17;50.25;;;27.42;;
33690;SDS011;20026;50.058;18.428;2022-10-31T01:45:43;51.67;;;29.67;;
33690;SDS011;20026;50.058;18.428;2022-10-31T01:48:11;59.08;;;29.40;;
33690;SDS011;20026;50.058;18.428;2022-10-31T01:50:39;60.08;;;32.63;;
33690;SDS011;20026;50.058;18.428;2022-10-31T01:53:05;52.25;;;29.75;;
33690;SDS011;20026;50.058;18.428;2022-10-31T01:55:32;56.95;;;31.30;;
33690;SDS011;20026;50.058;18.428;2022-10-31T02:00:53;68.53;;;35.25;;
33690;SDS011;20026;50.058;18.428;2022-10-31T02:03:21;60.90;;;32.42;;
33690;SDS011;20026;50.058;18.428;2022-10-31T02:05:47;63.70;;;31.85;;
33690;SDS011;20026;50.058;18.428;2022-10-31T02:08:22;67.97;;;34.08;;
33690;SDS011;20026;50.058;18.428;2022-10-31T02:10:50;60.65;;;31.20;;
33690;SDS011;20026;50.058;18.428;2022-10-31T02:13:17;65.70;;;35.20;;
33690;SDS011;20026;50.058;18.428;2022-10-31T02:15:49;63.00;;;32.70;;
33690;SDS011;20026;50.058;18.428;2022-10-31T02:18:15;67.53;;;33.42;;
33690;SDS011;20026;50.058;18.428;2022-10-31T02:34:06;69.57;;;36.00;;
33690;SDS011;20026;50.058;18.428;2022-10-31T02:36:38;89.38;;;41.90;;
33690;SDS011;20026;50.058;18.428;2022-10-31T02:49:59;74.03;;;35.25;;
33690;SDS011;20026;50.058;18.428;2022-10-31T02:52:27;71.93;;;34.22;;
33690;SDS011;20026;50.058;18.428;2022-10-31T02:54:54;71.95;;;36.03;;
33690;SDS011;20026;50.058;18.428;2022-10-31T02:57:30;71.15;;;35.80;;
33690;SDS011;20026;50.058;18.428;2022-10-31T02:59:58;68.07;;;33.60;;
33690;SDS011;20026;50.058;18.428;2022-10-31T03:05:23;68.07;;;33.38;;
33690;SDS011;20026;50.058;18.428;2022-10-31T03:08:06;84.97;;;40.47;;
33690;SDS011;20026;50.058;18.428;2022-10-31T03:15:30;92.47;;;44.92;;
33690;SDS011;20026;50.058;18.428;2022-10-31T03:20:31;70.30;;;34.80;;
33690;SDS011;20026;50.058;18.428;2022-10-31T03:22:59;67.88;;;32.92;;
33690;SDS011;20026;50.058;18.428;2022-10-31T03:25:26;77.10;;;36.95;;
33690;SDS011;20026;50.058;18.428;2022-10-31T03:27:52;74.82;;;38.63;;
33690;SDS011;20026;50.058;18.428;2022-10-31T03:30:19;63.85;;;34.05;;
33690;SDS011;20026;50.058;18.428;2022-10-31T03:32:49;70.15;;;33.83;;
33690;SDS011;20026;50.058;18.428;2022-10-31T03:35:17;65.05;;;34.03;;
33690;SDS011;20026;50.058;18.428;2022-10-31T03:37:43;77.47;;;36.40;;
33690;SDS011;20026;50.058;18.428;2022-10-31T03:40:10;75.47;;;37.50;;
33690;SDS011;20026;50.058;18.428;2022-10-31T03:42:39;65.55;;;33.58;;
33690;SDS011;20026;50.058;18.428;2022-10-31T03:47:33;74.88;;;36.25;;
33690;SDS011;20026;50.058;18.428;2022-10-31T03:50:00;86.95;;;35.88;;
33690;SDS011;20026;50.058;18.428;2022-10-31T03:52:28;109.82;;;34.47;;
33690;SDS011;20026;50.058;18.428;2022-10-31T03:55:03;104.97;;;35.10;;
33690;SDS011;20026;50.058;18.428;2022-10-31T03:57:35;141.52;;;39.38;;
33690;SDS011;20026;50.058;18.428;2022-10-31T04:00:05;127.22;;;37.67;;
33690;SDS011;20026;50.058;18.428;2022-10-31T04:02:32;180.60;;;39.53;;
33690;SDS011;20026;50.058;18.428;2022-10-31T04:04:58;172.32;;;38.10;;
33690;SDS011;20026;50.058;18.428;2022-10-31T04:07:26;355.60;;;94.43;;
33690;SDS011;20026;50.058;18.428;2022-10-31T04:09:53;215.60;;;44.90;;
33690;SDS011;20026;50.058;18.428;2022-10-31T04:12:19;264.08;;;47.85;;
33690;SDS011;20026;50.058;18.428;2022-10-31T04:14:46;246.40;;;55.60;;
33690;SDS011;20026;50.058;18.428;2022-10-31T04:17:17;249.05;;;48.42;;
33690;SDS011;20026;50.058;18.428;2022-10-31T04:19:44;282.27;;;60.22;;
33690;SDS011;20026;50.058;18.428;2022-10-31T04:22:10;324.70;;;51.47;;
33690;SDS011;20026;50.058;18.428;2022-10-31T04:24:37;489.95;;;99.10;;
33690;SDS011;20026;50.058;18.428;2022-10-31T04:27:04;209.98;;;46.63;;
33690;SDS011;20026;50.058;18.428;2022-10-31T04:29:30;340.25;;;68.72;;
33690;SDS011;20026;50.058;18.428;2022-10-31T04:31:56;393.17;;;74.35;;
33690;SDS011;20026;50.058;18.428;2022-10-31T04:34:22;251.43;;;45.42;;
33690;SDS011;20026;50.058;18.428;2022-10-31T04:36:48;216.90;;;45.28;;
33690;SDS011;20026;50.058;18.428;2022-10-31T04:39:14;327.50;;;50.75;;
33690;SDS011;20026;50.058;18.428;2022-10-31T04:41:40;292.95;;;54.45;;
33690;SDS011;20026;50.058;18.428;2022-10-31T04:44:06;313.92;;;81.65;;
33690;SDS011;20026;50.058;18.428;2022-10-31T04:46:32;228.25;;;44.45;;
33690;SDS011;20026;50.058;18.428;2022-10-31T04:48:58;298.02;;;46.45;;
33690;SDS011;20026;50.058;18.428;2022-10-31T04:51:24;252.00;;;48.88;;
33690;SDS011;20026;50.058;18.428;2022-10-31T04:53:50;268.50;;;43.83;;
33690;SDS011;20026;50.058;18.428;2022-10-31T04:56:16;330.85;;;45.30;;
33690;SDS011;20026;50.058;18.428;2022-10-31T04:58:42;257.38;;;46.67;;
33690;SDS011;20026;50.058;18.428;2022-10-31T05:01:08;346.30;;;56.65;;
33690;SDS011;20026;50.058;18.428;2022-10-31T05:03:35;286.42;;;49.90;;
33690;SDS011;20026;50.058;18.428;2022-10-31T05:06:01;352.77;;;57.13;;
33690;SDS011;20026;50.058;18.428;2022-10-31T05:08:26;341.20;;;56.05;;
33690;SDS011;20026;50.058;18.428;2022-10-31T05:10:52;293.27;;;52.80;;
33690;SDS011;20026;50.058;18.428;2022-10-31T05:13:18;352.13;;;55.25;;
33690;SDS011;20026;50.058;18.428;2022-10-31T05:15:44;245.02;;;49.50;;
33690;SDS011;20026;50.058;18.428;2022-10-31T05:18:10;220.43;;;46.63;;
33690;SDS011;20026;50.058;18.428;2022-10-31T05:20:36;271.48;;;50.55;;
33690;SDS011;20026;50.058;18.428;2022-10-31T05:23:02;365.45;;;99.18;;
33690;SDS011;20026;50.058;18.428;2022-10-31T05:25:28;335.77;;;69.57;;
33690;SDS011;20026;50.058;18.428;2022-10-31T05:27:55;350.98;;;67.25;;
33690;SDS011;20026;50.058;18.428;2022-10-31T05:30:22;272.65;;;55.92;;
33690;SDS011;20026;50.058;18.428;2022-10-31T05:32:49;274.25;;;50.13;;
33690;SDS011;20026;50.058;18.428;2022-10-31T05:35:17;215.57;;;51.55;;
33690;SDS011;20026;50.058;18.428;2022-10-31T05:37:43;268.25;;;51.97;;
33690;SDS011;20026;50.058;18.428;2022-10-31T05:40:10;340.30;;;47.78;;
33690;SDS011;20026;50.058;18.428;2022-10-31T05:42:38;257.23;;;50.45;;
33690;SDS011;20026;50.058;18.428;2022-10-31T05:45:05;318.20;;;50.30;;
33690;SDS011;20026;50.058;18.428;2022-10-31T05:47:37;308.75;;;51.08;;
33690;SDS011;20026;50.058;18.428;2022-10-31T05:50:06;208.32;;;47.15;;
33690;SDS011;20026;50.058;18.428;2022-10-31T05:52:38;285.13;;;53.60;;
33690;SDS011;20026;50.058;18.428;2022-10-31T05:55:04;261.80;;;55.60;;
33690;SDS011;20026;50.058;18.428;2022-10-31T05:57:31;347.38;;;53.15;;
33690;SDS011;20026;50.058;18.428;2022-10-31T05:59:57;216.90;;;45.60;;
33690;SDS011;20026;50.058;18.428;2022-10-31T06:05:12;231.02;;;43.65;;
33690;SDS011;20026;50.058;18.428;2022-10-31T06:07:38;230.05;;;44.40;;
33690;SDS011;20026;50.058;18.428;2022-10-31T06:10:06;241.77;;;52.13;;
33690;SDS011;20026;50.058;18.428;2022-10-31T06:12:36;263.10;;;43.75;;
33690;SDS011;20026;50.058;18.428;2022-10-31T06:15:06;287.27;;;46.80;;
33690;SDS011;20026;50.058;18.428;2022-10-31T06:19:58;255.90;;;63.95;;
33690;SDS011;20026;50.058;18.428;2022-10-31T06:22:24;257.52;;;47.30;;
33690;SDS011;20026;50.058;18.428;2022-10-31T06:24:50;284.35;;;66.43;;
33690;SDS011;20026;50.058;18.428;2022-10-31T06:27:19;262.73;;;53.28;;
33690;SDS011;20026;50.058;18.428;2022-10-31T06:29:45;241.82;;;53.00;;
33690;SDS011;20026;50.058;18.428;2022-10-31T06:32:12;237.70;;;51.33;;
33690;SDS011;20026;50.058;18.428;2022-10-31T06:34:41;200.32;;;49.35;;
33690;SDS011;20026;50.058;18.428;2022-10-31T06:37:07;339.52;;;68.15;;
33690;SDS011;20026;50.058;18.428;2022-10-31T06:39:34;283.27;;;65.90;;
33690;SDS011;20026;50.058;18.428;2022-10-31T06:42:00;217.25;;;50.28;;
33690;SDS011;20026;50.058;18.428;2022-10-31T06:44:26;226.27;;;60.20;;
33690;SDS011;20026;50.058;18.428;2022-10-31T06:46:53;314.52;;;88.97;;
33690;SDS011;20026;50.058;18.428;2022-10-31T06:49:19;199.95;;;52.92;;
33690;SDS011;20026;50.058;18.428;2022-10-31T06:51:48;235.23;;;77.10;;
33690;SDS011;20026;50.058;18.428;2022-10-31T06:54:14;231.27;;;76.28;;
33690;SDS011;20026;50.058;18.428;2022-10-31T06:56:40;251.77;;;73.95;;
33690;SDS011;20026;50.058;18.428;2022-10-31T06:59:06;185.30;;;65.00;;
33690;SDS011;20026;50.058;18.428;2022-10-31T07:01:32;188.80;;;53.28;;
33690;SDS011;20026;50.058;18.428;2022-10-31T07:03:58;174.63;;;54.45;;
33690;SDS011;20026;50.058;18.428;2022-10-31T07:06:24;180.95;;;56.40;;
33690;SDS011;20026;50.058;18.428;2022-10-31T07:08:50;155.25;;;51.35;;
33690;SDS011;20026;50.058;18.428;2022-10-31T07:11:16;136.85;;;45.60;;
33690;SDS011;20026;50.058;18.428;2022-10-31T07:13:42;134.02;;;51.15;;
33690;SDS011;20026;50.058;18.428;2022-10-31T07:16:08;134.27;;;46.33;;
33690;SDS011;20026;50.058;18.428;2022-10-31T07:18:38;126.35;;;47.42;;
33690;SDS011;20026;50.058;18.428;2022-10-31T07:21:04;105.30;;;47.25;;
33690;SDS011;20026;50.058;18.428;2022-10-31T07:23:30;105.57;;;45.55;;
33690;SDS011;20026;50.058;18.428;2022-10-31T07:25:57;118.18;;;47.83;;
33690;SDS011;20026;50.058;18.428;2022-10-31T07:28:23;112.93;;;51.42;;
33690;SDS011;20026;50.058;18.428;2022-10-31T07:30:50;106.28;;;47.25;;
33690;SDS011;20026;50.058;18.428;2022-10-31T07:33:16;113.18;;;48.80;;
33690;SDS011;20026;50.058;18.428;2022-10-31T07:35:42;101.35;;;46.47;;
33690;SDS011;20026;50.058;18.428;2022-10-31T07:38:08;93.63;;;42.92;;
33690;SDS011;20026;50.058;18.428;2022-10-31T07:40:34;88.40;;;41.67;;
33690;SDS011;20026;50.058;18.428;2022-10-31T07:43:01;79.30;;;39.78;;
33690;SDS011;20026;50.058;18.428;2022-10-31T07:45:26;68.75;;;35.15;;
33690;SDS011;20026;50.058;18.428;2022-10-31T07:47:56;63.92;;;34.22;;
33690;SDS011;20026;50.058;18.428;2022-10-31T07:50:23;48.15;;;24.17;;
33690;SDS011;20026;50.058;18.428;2022-10-31T07:53:11;60.67;;;31.40;;
33690;SDS011;20026;50.058;18.428;2022-10-31T07:55:37;67.63;;;32.20;;
33690;SDS011;20026;50.058;18.428;2022-10-31T07:58:13;74.32;;;31.52;;
33690;SDS011;20026;50.058;18.428;2022-10-31T08:00:41;77.68;;;32.50;;
33690;SDS011;20026;50.058;18.428;2022-10-31T08:03:08;114.18;;;66.35;;
33690;SDS011;20026;50.058;18.428;2022-10-31T08:05:34;61.03;;;30.60;;
33690;SDS011;20026;50.058;18.428;2022-10-31T08:08:01;61.60;;;28.10;;
33690;SDS011;20026;50.058;18.428;2022-10-31T08:10:28;41.97;;;26.80;;
33690;SDS011;20026;50.058;18.428;2022-10-31T08:12:55;71.63;;;36.13;;
33690;SDS011;20026;50.058;18.428;2022-10-31T08:15:22;49.33;;;30.10;;
33690;SDS011;20026;50.058;18.428;2022-10-31T08:17:50;47.25;;;29.60;;
33690;SDS011;20026;50.058;18.428;2022-10-31T08:20:16;49.33;;;29.90;;
33690;SDS011;20026;50.058;18.428;2022-10-31T08:22:42;52.40;;;31.48;;
33690;SDS011;20026;50.058;18.428;2022-10-31T08:25:08;56.20;;;32.15;;
33690;SDS011;20026;50.058;18.428;2022-10-31T08:27:34;62.25;;;33.85;;
33690;SDS011;20026;50.058;18.428;2022-10-31T08:30:00;52.72;;;31.90;;
33690;SDS011;20026;50.058;18.428;2022-10-31T08:32:26;49.58;;;31.52;;
33690;SDS011;20026;50.058;18.428;2022-10-31T08:34:52;54.55;;;33.97;;
33690;SDS011;20026;50.058;18.428;2022-10-31T08:37:19;53.00;;;31.50;;
33690;SDS011;20026;50.058;18.428;2022-10-31T08:39:46;53.65;;;33.45;;
33690;SDS011;20026;50.058;18.428;2022-10-31T08:42:12;43.20;;;29.35;;
33690;SDS011;20026;50.058;18.428;2022-10-31T08:44:38;62.22;;;37.60;;
33690;SDS011;20026;50.058;18.428;2022-10-31T08:47:04;42.40;;;29.05;;
33690;SDS011;20026;50.058;18.428;2022-10-31T08:49:30;44.28;;;28.10;;
33690;SDS011;20026;50.058;18.428;2022-10-31T08:51:56;41.88;;;27.35;;
33690;SDS011;20026;50.058;18.428;2022-10-31T08:54:22;74.93;;;45.53;;
33690;SDS011;20026;50.058;18.428;2022-10-31T08:56:53;45.30;;;29.92;;
33690;SDS011;20026;50.058;18.428;2022-10-31T08:59:19;55.53;;;34.38;;
33690;SDS011;20026;50.058;18.428;2022-10-31T09:01:45;49.42;;;33.00;;
33690;SDS011;20026;50.058;18.428;2022-10-31T09:04:11;37.00;;;25.15;;
33690;SDS011;20026;50.058;18.428;2022-10-31T09:06:37;37.67;;;25.45;;
33690;SDS011;20026;50.058;18.428;2022-10-31T09:09:03;32.65;;;23.90;;
33690;SDS011;20026;50.058;18.428;2022-10-31T09:11:30;28.38;;;21.92;;
33690;SDS011;20026;50.058;18.428;2022-10-31T09:13:56;30.52;;;23.42;;
33690;SDS011;20026;50.058;18.428;2022-10-31T09:16:22;31.25;;;21.60;;
33690;SDS011;20026;50.058;18.428;2022-10-31T09:18:48;39.00;;;22.33;;
33690;SDS011;20026;50.058;18.428;2022-10-31T09:21:13;35.90;;;26.17;;
33690;SDS011;20026;50.058;18.428;2022-10-31T09:23:39;30.05;;;22.27;;
33690;SDS011;20026;50.058;18.428;2022-10-31T09:26:05;32.33;;;22.83;;
33690;SDS011;20026;50.058;18.428;2022-10-31T09:28:32;30.05;;;21.27;;
33690;SDS011;20026;50.058;18.428;2022-10-31T09:30:58;30.52;;;21.65;;
33690;SDS011;20026;50.058;18.428;2022-10-31T09:33:24;28.75;;;20.83;;
33690;SDS011;20026;50.058;18.428;2022-10-31T09:35:50;26.95;;;20.77;;
33690;SDS011;20026;50.058;18.428;2022-10-31T09:38:17;30.80;;;19.60;;
33690;SDS011;20026;50.058;18.428;2022-10-31T09:43:49;36.13;;;20.35;;
33690;SDS011;20026;50.058;18.428;2022-10-31T09:46:26;32.20;;;20.92;;
33690;SDS011;20026;50.058;18.428;2022-10-31T09:51:48;26.75;;;18.35;;
33690;SDS011;20026;50.058;18.428;2022-10-31T09:54:17;31.25;;;21.33;;
33690;SDS011;20026;50.058;18.428;2022-10-31T09:56:44;27.67;;;20.52;;
33690;SDS011;20026;50.058;18.428;2022-10-31T09:59:11;38.35;;;19.85;;
33690;SDS011;20026;50.058;18.428;2022-10-31T10:06:55;25.55;;;18.17;;
33690;SDS011;20026;50.058;18.428;2022-10-31T10:09:22;26.30;;;18.25;;
33690;SDS011;20026;50.058;18.428;2022-10-31T10:22:27;27.25;;;20.55;;
33690;SDS011;20026;50.058;18.428;2022-10-31T10:25:25;39.10;;;23.10;;
33690;SDS011;20026;50.058;18.428;2022-10-31T10:30:21;47.67;;;24.98;;
33690;SDS011;20026;50.058;18.428;2022-10-31T10:32:57;83.20;;;39.40;;
33690;SDS011;20026;50.058;18.428;2022-10-31T10:37:51;35.28;;;21.08;;
33690;SDS011;20026;50.058;18.428;2022-10-31T10:40:21;32.80;;;19.77;;
33690;SDS011;20026;50.058;18.428;2022-10-31T10:51:10;33.50;;;18.08;;
33690;SDS011;20026;50.058;18.428;2022-10-31T10:53:51;26.58;;;15.88;;
33690;SDS011;20026;50.058;18.428;2022-10-31T10:56:37;29.10;;;16.63;;
33690;SDS011;20026;50.058;18.428;2022-10-31T10:59:06;28.13;;;18.38;;
33690;SDS011;20026;50.058;18.428;2022-10-31T11:01:34;27.92;;;16.73;;
33690;SDS011;20026;50.058;18.428;2022-10-31T11:04:01;26.42;;;16.42;;
33690;SDS011;20026;50.058;18.428;2022-10-31T11:06:27;28.85;;;17.42;;
33690;SDS011;20026;50.058;18.428;2022-10-31T11:08:53;23.65;;;15.98;;
33690;SDS011;20026;50.058;18.428;2022-10-31T11:13:49;32.83;;;19.65;;
33690;SDS011;20026;50.058;18.428;2022-10-31T11:18:51;26.80;;;15.73;;
33690;SDS011;20026;50.058;18.428;2022-10-31T11:21:25;36.67;;;16.85;;
33690;SDS011;20026;50.058;18.428;2022-10-31T11:24:15;43.70;;;24.17;;
33690;SDS011;20026;50.058;18.428;2022-10-31T11:26:41;55.45;;;28.40;;
33690;SDS011;20026;50.058;18.428;2022-10-31T11:29:20;29.40;;;14.02;;
33690;SDS011;20026;50.058;18.428;2022-10-31T11:31:53;25.95;;;13.20;;
33690;SDS011;20026;50.058;18.428;2022-10-31T11:34:27;23.83;;;12.93;;
33690;SDS011;20026;50.058;18.428;2022-10-31T11:36:53;25.85;;;12.70;;
33690;SDS011;20026;50.058;18.428;2022-10-31T11:39:21;24.73;;;14.55;;
33690;SDS011;20026;50.058;18.428;2022-10-31T11:41:47;25.83;;;14.07;;
33690;SDS011;20026;50.058;18.428;2022-10-31T11:44:25;31.48;;;14.82;;
33690;SDS011;20026;50.058;18.428;2022-10-31T11:46:57;22.17;;;13.95;;
33690;SDS011;20026;50.058;18.428;2022-10-31T11:49:32;33.20;;;16.75;;
33690;SDS011;20026;50.058;18.428;2022-10-31T11:52:20;27.80;;;18.23;;
33690;SDS011;20026;50.058;18.428;2022-10-31T11:55:13;67.53;;;32.08;;
33690;SDS011;20026;50.058;18.428;2022-10-31T11:57:48;28.58;;;15.10;;
33690;SDS011;20026;50.058;18.428;2022-10-31T12:00:25;27.08;;;12.77;;
33690;SDS011;20026;50.058;18.428;2022-10-31T12:05:38;45.92;;;22.77;;
33690;SDS011;20026;50.058;18.428;2022-10-31T12:08:09;36.30;;;20.48;;
33690;SDS011;20026;50.058;18.428;2022-10-31T12:10:50;34.20;;;18.63;;
33690;SDS011;20026;50.058;18.428;2022-10-31T12:13:40;23.50;;;12.00;;
33690;SDS011;20026;50.058;18.428;2022-10-31T12:16:33;22.58;;;11.02;;
33690;SDS011;20026;50.058;18.428;2022-10-31T12:45:59;23.30;;;10.13;;
33690;SDS011;20026;50.058;18.428;2022-10-31T12:53:51;19.88;;;8.60;;
33690;SDS011;20026;50.058;18.428;2022-10-31T12:58:59;13.87;;;7.43;;
33690;SDS011;20026;50.058;18.428;2022-10-31T13:01:29;19.75;;;8.15;;
33690;SDS011;20026;50.058;18.428;2022-10-31T13:04:09;14.88;;;8.13;;
33690;SDS011;20026;50.058;18.428;2022-10-31T13:09:05;19.92;;;9.50;;
33690;SDS011;20026;50.058;18.428;2022-10-31T13:14:10;19.30;;;9.48;;
33690;SDS011;20026;50.058;18.428;2022-10-31T13:16:43;17.55;;;7.80;;
33690;SDS011;20026;50.058;18.428;2022-10-31T13:21:39;18.10;;;8.88;;
33690;SDS011;20026;50.058;18.428;2022-10-31T13:24:08;18.20;;;7.20;;
33690;SDS011;20026;50.058;18.428;2022-10-31T13:26:38;13.02;;;6.95;;
33690;SDS011;20026;50.058;18.428;2022-10-31T13:29:10;14.38;;;7.07;;
33690;SDS011;20026;50.058;18.428;2022-10-31T13:31:41;19.10;;;6.72;;
33690;SDS011;20026;50.058;18.428;2022-10-31T13:37:28;19.50;;;7.95;;
33690;SDS011;20026;50.058;18.428;2022-10-31T13:43:14;18.10;;;7.40;;
33690;SDS011;20026;50.058;18.428;2022-10-31T13:45:50;20.65;;;10.38;;
33690;SDS011;20026;50.058;18.428;2022-10-31T13:48:37;27.70;;;11.48;;
33690;SDS011;20026;50.058;18.428;2022-10-31T13:51:06;231.15;;;74.22;;
33690;SDS011;20026;50.058;18.428;2022-10-31T13:53:36;41.88;;;17.23;;
33690;SDS011;20026;50.058;18.428;2022-10-31T13:58:35;37.53;;;16.42;;
33690;SDS011;20026;50.058;18.428;2022-10-31T14:01:04;37.33;;;15.80;;
33690;SDS011;20026;50.058;18.428;2022-10-31T14:03:39;24.10;;;10.10;;
33690;SDS011;20026;50.058;18.428;2022-10-31T14:06:06;20.60;;;10.77;;
33690;SDS011;20026;50.058;18.428;2022-10-31T14:08:34;23.30;;;10.98;;
33690;SDS011;20026;50.058;18.428;2022-10-31T14:11:00;28.70;;;12.05;;
33690;SDS011;20026;50.058;18.428;2022-10-31T14:13:29;18.83;;;10.35;;
33690;SDS011;20026;50.058;18.428;2022-10-31T14:16:01;19.80;;;9.27;;
33690;SDS011;20026;50.058;18.428;2022-10-31T14:18:31;17.48;;;9.30;;
33690;SDS011;20026;50.058;18.428;2022-10-31T14:20:57;15.98;;;7.95;;
33690;SDS011;20026;50.058;18.428;2022-10-31T14:28:41;17.77;;;7.05;;
33690;SDS011;20026;50.058;18.428;2022-10-31T14:31:21;15.98;;;6.60;;
33690;SDS011;20026;50.058;18.428;2022-10-31T14:33:49;16.23;;;6.78;;
33690;SDS011;20026;50.058;18.428;2022-10-31T14:36:21;16.27;;;6.40;;
33690;SDS011;20026;50.058;18.428;2022-10-31T14:39:00;33.90;;;16.57;;
33690;SDS011;20026;50.058;18.428;2022-10-31T14:52:22;23.27;;;8.85;;
33690;SDS011;20026;50.058;18.428;2022-10-31T14:54:50;28.00;;;9.75;;
33690;SDS011;20026;50.058;18.428;2022-10-31T14:59:47;22.57;;;10.73;;
33690;SDS011;20026;50.058;18.428;2022-10-31T15:04:44;27.17;;;12.37;;
33690;SDS011;20026;50.058;18.428;2022-10-31T15:07:24;30.02;;;12.65;;
33690;SDS011;20026;50.058;18.428;2022-10-31T15:12:24;28.23;;;11.95;;
33690;SDS011;20026;50.058;18.428;2022-10-31T15:14:53;39.72;;;14.88;;
33690;SDS011;20026;50.058;18.428;2022-10-31T15:17:20;35.67;;;14.95;;
33690;SDS011;20026;50.058;18.428;2022-10-31T15:19:46;49.30;;;16.08;;
33690;SDS011;20026;50.058;18.428;2022-10-31T15:22:14;62.60;;;24.85;;
33690;SDS011;20026;50.058;18.428;2022-10-31T15:24:40;39.70;;;20.05;;
33690;SDS011;20026;50.058;18.428;2022-10-31T15:27:10;75.15;;;32.08;;
33690;SDS011;20026;50.058;18.428;2022-10-31T15:29:46;79.93;;;36.95;;
33690;SDS011;20026;50.058;18.428;2022-10-31T15:32:23;64.07;;;26.70;;
33690;SDS011;20026;50.058;18.428;2022-10-31T15:34:50;57.72;;;27.85;;
33690;SDS011;20026;50.058;18.428;2022-10-31T15:37:21;59.95;;;27.40;;
33690;SDS011;20026;50.058;18.428;2022-10-31T15:39:49;68.57;;;27.50;;
33690;SDS011;20026;50.058;18.428;2022-10-31T15:42:20;59.95;;;26.23;;
33690;SDS011;20026;50.058;18.428;2022-10-31T15:44:47;67.55;;;28.08;;
33690;SDS011;20026;50.058;18.428;2022-10-31T15:47:19;61.78;;;28.90;;
33690;SDS011;20026;50.058;18.428;2022-10-31T15:52:15;52.73;;;24.87;;
33690;SDS011;20026;50.058;18.428;2022-10-31T15:54:47;107.32;;;53.05;;
33690;SDS011;20026;50.058;18.428;2022-10-31T15:57:14;139.27;;;72.43;;
33690;SDS011;20026;50.058;18.428;2022-10-31T15:59:41;176.98;;;87.97;;
33690;SDS011;20026;50.058;18.428;2022-10-31T16:02:09;139.98;;;68.85;;
33690;SDS011;20026;50.058;18.428;2022-10-31T16:04:36;152.00;;;74.03;;
33690;SDS011;20026;50.058;18.428;2022-10-31T16:07:10;122.72;;;57.25;;
33690;SDS011;20026;50.058;18.428;2022-10-31T16:09:37;114.32;;;57.10;;
33690;SDS011;20026;50.058;18.428;2022-10-31T16:12:14;109.07;;;55.05;;
33690;SDS011;20026;50.058;18.428;2022-10-31T16:14:41;103.13;;;49.20;;
33690;SDS011;20026;50.058;18.428;2022-10-31T16:17:10;192.05;;;80.43;;
33690;SDS011;20026;50.058;18.428;2022-10-31T16:19:46;222.07;;;81.38;;
33690;SDS011;20026;50.058;18.428;2022-10-31T16:22:18;111.80;;;47.33;;
33690;SDS011;20026;50.058;18.428;2022-10-31T16:24:46;102.78;;;47.40;;
33690;SDS011;20026;50.058;18.428;2022-10-31T16:27:16;106.95;;;50.78;;
33690;SDS011;20026;50.058;18.428;2022-10-31T16:29:44;263.25;;;91.90;;
33690;SDS011;20026;50.058;18.428;2022-10-31T16:37:33;104.00;;;50.13;;
33690;SDS011;20026;50.058;18.428;2022-10-31T16:39:59;99.63;;;46.88;;
33690;SDS011;20026;50.058;18.428;2022-10-31T16:42:25;98.65;;;48.42;;
33690;SDS011;20026;50.058;18.428;2022-10-31T16:44:52;113.60;;;51.10;;
33690;SDS011;20026;50.058;18.428;2022-10-31T16:47:18;111.38;;;54.67;;
33690;SDS011;20026;50.058;18.428;2022-10-31T16:49:46;139.07;;;66.30;;
33690;SDS011;20026;50.058;18.428;2022-10-31T16:52:12;114.82;;;53.60;;
33690;SDS011;20026;50.058;18.428;2022-10-31T16:54:38;149.60;;;69.88;;
33690;SDS011;20026;50.058;18.428;2022-10-31T16:57:05;127.60;;;59.30;;
33690;SDS011;20026;50.058;18.428;2022-10-31T16:59:31;135.95;;;67.20;;
33690;SDS011;20026;50.058;18.428;2022-10-31T17:02:00;179.50;;;88.72;;
33690;SDS011;20026;50.058;18.428;2022-10-31T17:04:28;130.05;;;67.68;;